createdAt,value
2019-04-29T00:02:53.126Z,24.80
2019-04-29T00:05:23.965Z,23.45
2019-04-29T00:07:54.814Z,24.02
2019-04-29T00:10:25.966Z,23.50
2019-04-29T00:12:56.892Z,22.30
2019-04-29T00:15:29.159Z,22.75
2019-04-29T00:18:01.629Z,21.77
2019-04-29T00:20:33.934Z,20.50
2019-04-29T00:23:05.184Z,21.80
2019-04-29T00:25:36.323Z,21.68
2019-04-29T00:28:07.057Z,23.10
2019-04-29T00:30:37.963Z,21.17
2019-04-29T00:33:09.033Z,21.62
2019-04-29T00:35:40.275Z,21.23
2019-04-29T00:38:12.505Z,20.88
2019-04-29T00:40:43.258Z,20.97
2019-04-29T00:43:15.410Z,21.10
2019-04-29T00:45:46.687Z,20.65
2019-04-29T00:48:17.494Z,21.15
2019-04-29T00:50:48.343Z,20.65
2019-04-29T00:53:19.412Z,19.40
2019-04-29T00:55:51.565Z,21.15
2019-04-29T00:58:22.360Z,19.95
2019-04-29T01:00:53.332Z,19.27
2019-04-29T01:03:24.187Z,18.05
2019-04-29T01:05:55.065Z,15.95
2019-04-29T01:08:26.090Z,16.12
2019-04-29T01:10:57.129Z,16.25
2019-04-29T01:13:28.003Z,15.60
2019-04-29T01:15:58.948Z,15.10
2019-04-29T01:18:29.800Z,14.38
2019-04-29T01:21:00.873Z,13.93
2019-04-29T01:23:31.644Z,15.35
2019-04-29T01:26:03.738Z,16.65
2019-04-29T01:28:52.409Z,15.32
2019-04-29T01:31:24.937Z,15.43
2019-04-29T01:33:56.920Z,16.10
2019-04-29T01:36:29.205Z,15.30
2019-04-29T01:39:01.695Z,14.10
2019-04-29T01:41:33.769Z,14.80
2019-04-29T01:44:06.043Z,15.05
2019-04-29T01:46:37.326Z,14.60
2019-04-29T01:49:09.616Z,15.72
2019-04-29T01:51:40.525Z,15.93
2019-04-29T01:54:11.521Z,15.68
2019-04-29T01:56:42.429Z,33.10
2019-04-29T01:59:13.389Z,22.25
2019-04-29T02:01:44.246Z,14.98
2019-04-29T02:04:15.044Z,16.50
2019-04-29T02:06:46.100Z,16.57
2019-04-29T02:09:18.081Z,17.23
2019-04-29T02:11:48.989Z,18.32
2019-04-29T02:14:19.678Z,15.32
2019-04-29T02:16:50.682Z,17.00
2019-04-29T02:19:21.610Z,17.55
2019-04-29T02:21:53.951Z,16.48
2019-04-29T02:24:25.849Z,15.83
2019-04-29T02:26:57.846Z,17.07
2019-04-29T02:29:28.774Z,17.62
2019-04-29T02:31:59.661Z,22.55
2019-04-29T02:34:30.543Z,18.80
2019-04-29T02:37:02.712Z,16.80
2019-04-29T02:39:35.062Z,17.25
2019-04-29T02:42:07.673Z,17.50
2019-04-29T02:44:39.593Z,18.92
2019-04-29T02:47:11.758Z,18.77
2019-04-29T02:52:31.426Z,18.65
2019-04-29T02:55:03.492Z,17.35
2019-04-29T02:57:35.656Z,18.57
2019-04-29T03:00:10.377Z,19.40
2019-04-29T03:02:43.204Z,18.42
2019-04-29T03:05:15.545Z,18.98
2019-04-29T03:07:46.614Z,20.35
2019-04-29T03:10:17.822Z,23.20
2019-04-29T03:12:48.820Z,17.67
2019-04-29T03:15:22.209Z,20.40
2019-04-29T03:17:52.981Z,20.50
2019-04-29T03:20:24.487Z,20.97
2019-04-29T03:22:57.053Z,22.52
2019-04-29T03:25:28.244Z,23.20
2019-04-29T03:27:59.253Z,26.50
2019-04-29T03:30:30.894Z,23.83
2019-04-29T03:33:01.855Z,20.97
2019-04-29T03:35:32.677Z,20.57
2019-04-29T03:38:03.666Z,22.35
2019-04-29T03:40:34.755Z,19.35
2019-04-29T03:43:08.245Z,19.42
2019-04-29T03:45:39.452Z,19.23
2019-04-29T03:48:11.934Z,18.05
2019-04-29T03:50:42.856Z,23.87
2019-04-29T03:53:13.873Z,18.70
2019-04-29T03:55:47.371Z,17.30
2019-04-29T03:58:20.177Z,24.40
2019-04-29T04:00:52.376Z,17.10
2019-04-29T04:03:24.624Z,18.87
2019-04-29T04:05:56.727Z,16.95
2019-04-29T04:08:29.812Z,17.35
2019-04-29T04:11:00.935Z,18.10
2019-04-29T04:13:31.901Z,17.70
2019-04-29T04:16:03.261Z,17.85
2019-04-29T04:18:35.259Z,17.52
2019-04-29T04:21:06.135Z,17.77
2019-04-29T04:23:37.559Z,19.15
2019-04-29T04:26:08.424Z,18.85
2019-04-29T04:28:39.156Z,17.67
2019-04-29T04:31:11.598Z,19.23
2019-04-29T04:33:42.214Z,18.42
2019-04-29T04:36:13.128Z,19.25
2019-04-29T04:38:44.002Z,18.30
2019-04-29T04:41:15.019Z,18.48
2019-04-29T04:43:46.188Z,18.60
2019-04-29T04:46:17.034Z,17.00
2019-04-29T04:48:47.909Z,17.62
2019-04-29T04:51:18.815Z,17.17
2019-04-29T04:53:50.041Z,17.23
2019-04-29T04:56:20.926Z,16.77
2019-04-29T04:58:54.402Z,22.80
2019-04-29T05:01:25.157Z,26.35
2019-04-29T05:03:56.164Z,21.73
2019-04-29T05:06:27.087Z,18.10
2019-04-29T05:08:57.759Z,17.82
2019-04-29T05:11:29.697Z,15.45
2019-04-29T05:14:00.618Z,15.10
2019-04-29T05:16:31.459Z,16.23
2019-04-29T05:19:05.498Z,17.37
2019-04-29T05:21:36.160Z,17.30
2019-04-29T05:24:07.051Z,15.30
2019-04-29T05:26:38.065Z,16.60
2019-04-29T05:29:09.028Z,15.40
2019-04-29T05:31:40.524Z,17.00
2019-04-29T05:34:12.690Z,16.40
2019-04-29T05:36:45.614Z,16.02
2019-04-29T05:39:17.930Z,16.27
2019-04-29T05:41:48.744Z,22.25
2019-04-29T05:44:20.824Z,17.50
2019-04-29T05:46:53.473Z,16.77
2019-04-29T05:49:25.776Z,15.80
2019-04-29T05:52:01.891Z,15.88
2019-04-29T05:54:33.645Z,16.50
2019-04-29T05:57:04.790Z,15.95
2019-04-29T05:59:36.039Z,15.75
2019-04-29T06:02:15.138Z,16.87
2019-04-29T06:04:48.168Z,16.45
2019-04-29T06:07:21.612Z,16.27
2019-04-29T06:09:51.587Z,15.55
2019-04-29T06:12:23.241Z,15.88
2019-04-29T06:14:54.453Z,16.07
2019-04-29T06:17:27.758Z,15.75
2019-04-29T06:19:58.614Z,15.13
2019-04-29T06:22:29.427Z,14.40
2019-04-29T06:25:00.393Z,16.17
2019-04-29T06:27:33.334Z,15.80
2019-04-29T06:30:04.885Z,15.18
2019-04-29T06:32:35.940Z,15.70
2019-04-29T06:35:10.633Z,14.87
2019-04-29T06:37:40.212Z,13.90
2019-04-29T06:40:11.302Z,14.03
2019-04-29T06:42:42.462Z,14.43
2019-04-29T06:45:13.732Z,14.73
2019-04-29T06:47:45.358Z,13.70
2019-04-29T06:50:16.653Z,12.90
2019-04-29T06:52:47.560Z,13.80
2019-04-29T06:55:18.583Z,12.40
2019-04-29T06:57:49.412Z,13.10
2019-04-29T07:00:22.317Z,13.00
2019-04-29T07:02:52.849Z,14.53
2019-04-29T07:05:23.576Z,12.90
2019-04-29T07:07:54.419Z,13.93
2019-04-29T07:10:27.116Z,12.50
2019-04-29T07:12:57.463Z,12.73
2019-04-29T07:15:28.353Z,13.45
2019-04-29T07:17:59.403Z,19.98
2019-04-29T07:20:32.431Z,22.52
2019-04-29T07:23:02.557Z,16.62
2019-04-29T07:25:33.581Z,13.00
2019-04-29T07:28:04.398Z,13.03
2019-04-29T07:30:39.143Z,13.13
2019-04-29T07:33:07.679Z,12.93
2019-04-29T07:35:42.773Z,12.35
2019-04-29T07:38:10.820Z,12.00
2019-04-29T07:40:43.311Z,12.13
2019-04-29T07:43:13.832Z,14.47
2019-04-29T07:45:46.222Z,13.18
2019-04-29T07:48:17.357Z,13.58
2019-04-29T07:50:48.321Z,14.68
2019-04-29T07:53:20.935Z,14.63
2019-04-29T07:55:51.479Z,17.35
2019-04-29T07:58:26.899Z,16.95
2019-04-29T08:00:56.342Z,17.05
2019-04-29T08:03:28.156Z,17.60
2019-04-29T08:06:00.381Z,17.15
2019-04-29T08:08:33.529Z,16.45
2019-04-29T08:11:04.799Z,17.45
2019-04-29T08:13:36.343Z,15.00
2019-04-29T08:16:07.220Z,16.17
2019-04-29T08:18:38.199Z,13.58
2019-04-29T08:21:10.306Z,14.28
2019-04-29T08:23:42.360Z,15.23
2019-04-29T08:26:13.356Z,12.80
2019-04-29T08:28:44.478Z,13.28
2019-04-29T08:31:16.646Z,13.40
2019-04-29T08:33:48.522Z,12.40
2019-04-29T08:36:20.160Z,18.98
2019-04-29T08:38:51.065Z,12.40
2019-04-29T08:41:28.500Z,11.53
2019-04-29T08:44:14.606Z,10.93
2019-04-29T08:46:31.385Z,11.50
2019-04-29T08:49:06.110Z,11.03
2019-04-29T08:51:35.137Z,10.98
2019-04-29T08:54:06.048Z,11.18
2019-04-29T08:56:42.474Z,11.33
2019-04-29T08:59:09.246Z,11.65
2019-04-29T09:01:40.135Z,11.88
2019-04-29T09:04:11.084Z,12.30
2019-04-29T09:06:42.058Z,11.63
2019-04-29T09:09:28.050Z,12.05
2019-04-29T09:11:48.052Z,15.68
2019-04-29T09:14:17.551Z,13.53
2019-04-29T09:16:48.675Z,13.45
2019-04-29T09:19:19.736Z,14.50
2019-04-29T09:21:51.913Z,13.30
2019-04-29T09:24:23.608Z,15.75
2019-04-29T09:26:56.069Z,12.95
2019-04-29T09:29:29.035Z,12.78
2019-04-29T09:32:00.034Z,13.08
2019-04-29T09:34:31.072Z,13.00
2019-04-29T09:37:02.077Z,11.83
2019-04-29T09:39:42.862Z,13.13
2019-04-29T09:42:08.139Z,12.40
2019-04-29T09:44:44.871Z,12.47
2019-04-29T09:47:14.872Z,12.58
2019-04-29T09:49:46.711Z,13.08
2019-04-29T09:52:17.797Z,12.30
2019-04-29T09:54:50.349Z,12.93
2019-04-29T09:57:21.401Z,12.35
2019-04-29T09:59:53.499Z,13.30
2019-04-29T10:02:26.399Z,13.93
2019-04-29T10:05:18.925Z,12.30
2019-04-29T10:07:49.753Z,12.37
2019-04-29T10:10:21.187Z,12.95
2019-04-29T10:12:53.877Z,12.20
2019-04-29T10:15:25.809Z,12.25
2019-04-29T10:17:57.824Z,11.85
2019-04-29T10:20:28.410Z,12.40
2019-04-29T10:22:59.349Z,11.55
2019-04-29T10:25:30.166Z,11.85
2019-04-29T10:28:01.071Z,11.60
2019-04-29T10:30:33.271Z,11.68
2019-04-29T10:33:04.087Z,11.75
2019-04-29T10:35:35.102Z,12.40
2019-04-29T10:38:07.380Z,11.97
2019-04-29T10:40:39.348Z,12.98
2019-04-29T10:43:14.965Z,12.90
2019-04-29T10:45:44.879Z,13.18
2019-04-29T10:48:17.230Z,12.50
2019-04-29T10:50:52.226Z,13.05
2019-04-29T10:53:22.058Z,12.33
2019-04-29T10:55:52.917Z,12.75
2019-04-29T10:58:30.284Z,12.60
2019-04-29T11:01:00.456Z,13.05
2019-04-29T11:03:31.482Z,12.75
2019-04-29T11:06:02.472Z,12.43
2019-04-29T11:08:38.129Z,12.35
2019-04-29T11:11:21.896Z,12.95
2019-04-29T11:13:47.072Z,11.93
2019-04-29T11:16:13.990Z,12.03
2019-04-29T11:18:45.038Z,12.15
2019-04-29T11:21:16.071Z,12.00
2019-04-29T11:23:50.749Z,12.30
2019-04-29T11:26:22.120Z,12.30
2019-04-29T11:28:52.845Z,11.73
2019-04-29T11:31:23.820Z,10.98
2019-04-29T11:33:56.095Z,11.28
2019-04-29T11:36:28.264Z,11.48
2019-04-29T11:38:59.559Z,11.43
2019-04-29T11:41:32.271Z,11.60
2019-04-29T11:44:03.286Z,11.22
2019-04-29T11:46:34.066Z,10.53
2019-04-29T11:49:06.206Z,10.30
2019-04-29T11:51:48.519Z,10.28
2019-04-29T11:54:12.743Z,10.50
2019-04-29T11:56:42.944Z,10.98
2019-04-29T11:59:15.227Z,11.15
2019-04-29T12:01:50.978Z,11.73
2019-04-29T12:04:17.809Z,11.10
2019-04-29T12:06:51.336Z,11.73
2019-04-29T12:09:25.276Z,12.63
2019-04-29T12:11:53.618Z,12.23
2019-04-29T12:14:25.645Z,12.35
2019-04-29T12:16:57.617Z,11.75
2019-04-29T12:19:29.746Z,12.33
2019-04-29T12:22:00.700Z,12.95
2019-04-29T12:24:31.845Z,12.18
2019-04-29T12:27:02.702Z,11.95
2019-04-29T12:29:33.575Z,12.75
2019-04-29T12:32:05.821Z,13.50
2019-04-29T12:34:38.827Z,12.88
2019-04-29T12:37:10.982Z,13.35
2019-04-29T12:39:44.731Z,13.62
2019-04-29T12:42:16.757Z,13.78
2019-04-29T12:44:48.821Z,17.80
2019-04-29T12:47:26.790Z,20.70
2019-04-29T12:49:53.220Z,21.73
2019-04-29T12:52:24.098Z,20.88
2019-04-29T12:54:54.944Z,21.45
2019-04-29T12:57:25.911Z,22.42
2019-04-29T12:59:56.770Z,22.02
2019-04-29T13:02:31.367Z,22.25
2019-04-29T13:05:02.160Z,21.60
2019-04-29T13:07:34.357Z,23.15
2019-04-29T13:10:08.567Z,23.60
2019-04-29T13:12:39.871Z,22.25
2019-04-29T13:15:14.089Z,22.58
2019-04-29T13:17:46.120Z,22.82
2019-04-29T13:20:17.108Z,22.32
2019-04-29T13:22:47.949Z,23.98
2019-04-29T13:25:19.672Z,23.27
2019-04-29T13:27:50.894Z,24.15
2019-04-29T13:30:22.459Z,23.27
2019-04-29T13:32:55.946Z,25.20
2019-04-29T13:35:26.759Z,25.52
2019-04-29T13:37:57.694Z,26.82
2019-04-29T13:40:32.869Z,24.43
2019-04-29T13:43:00.892Z,25.55
2019-04-29T13:45:33.056Z,25.20
2019-04-29T13:48:07.062Z,23.75
2019-04-29T13:50:40.678Z,23.70
2019-04-29T13:53:11.582Z,25.00
2019-04-29T13:55:49.155Z,25.45
2019-04-29T13:58:15.178Z,25.80
2019-04-29T14:00:47.284Z,24.75
2019-04-29T14:03:19.632Z,26.07
2019-04-29T14:06:03.636Z,25.00
2019-04-29T14:08:24.294Z,24.85
2019-04-29T14:10:57.456Z,24.27
2019-04-29T14:13:28.430Z,24.80
2019-04-29T14:15:59.373Z,24.55
2019-04-29T14:18:30.218Z,23.65
2019-04-29T14:21:01.132Z,24.12
2019-04-29T14:23:32.081Z,23.45
2019-04-29T14:26:02.934Z,25.00
2019-04-29T14:28:33.733Z,24.85
2019-04-29T14:31:04.411Z,21.90
2019-04-29T14:33:36.515Z,22.37
2019-04-29T14:36:08.760Z,21.95
2019-04-29T14:38:40.502Z,23.38
2019-04-29T14:41:14.193Z,23.27
2019-04-29T14:43:45.472Z,24.18
2019-04-29T14:46:17.623Z,22.82
2019-04-29T14:48:49.844Z,23.15
2019-04-29T14:51:20.808Z,22.62
2019-04-29T14:53:56.786Z,21.68
2019-04-29T14:56:24.036Z,20.45
2019-04-29T14:59:06.105Z,20.27
2019-04-29T15:01:28.470Z,19.35
2019-04-29T15:04:00.649Z,19.17
2019-04-29T15:06:31.538Z,18.20
2019-04-29T15:09:02.538Z,17.10
2019-04-29T15:11:34.723Z,16.90
2019-04-29T15:14:07.087Z,17.55
2019-04-29T15:16:39.596Z,17.32
2019-04-29T15:19:13.161Z,17.35
2019-04-29T15:21:45.741Z,17.32
2019-04-29T15:24:17.584Z,18.57
2019-04-29T15:26:48.667Z,18.23
2019-04-29T15:29:19.363Z,17.52
2019-04-29T15:31:50.280Z,18.05
2019-04-29T15:34:21.019Z,17.40
2019-04-29T15:36:52.004Z,15.63
2019-04-29T15:39:25.033Z,16.05
2019-04-29T15:41:55.424Z,13.30
2019-04-29T15:44:26.597Z,12.53
2019-04-29T15:46:57.406Z,13.98
2019-04-29T15:49:28.176Z,13.58
2019-04-29T15:51:59.162Z,13.90
2019-04-29T15:54:30.126Z,15.30
2019-04-29T15:57:03.736Z,15.55
2019-04-29T15:59:48.002Z,14.80
2019-04-29T16:02:06.674Z,12.82
2019-04-29T16:04:39.151Z,12.20
2019-04-29T16:07:17.192Z,11.30
2019-04-29T16:09:51.665Z,10.95
2019-04-29T16:12:18.143Z,11.78
2019-04-29T16:17:21.215Z,10.72
2019-04-29T16:19:51.981Z,10.20
2019-04-29T16:22:23.056Z,9.28
2019-04-29T16:24:59.175Z,9.60
2019-04-29T16:27:26.008Z,8.55
2019-04-29T16:29:56.675Z,9.20
2019-04-29T16:32:28.819Z,8.75
2019-04-29T16:34:59.841Z,9.60
2019-04-29T16:37:31.937Z,9.33
2019-04-29T16:40:03.027Z,9.25
2019-04-29T16:42:33.767Z,9.20
2019-04-29T16:45:06.294Z,8.83
2019-04-29T16:47:36.881Z,9.35
2019-04-29T16:50:07.838Z,10.15
2019-04-29T16:52:44.167Z,10.15
2019-04-29T16:55:11.170Z,10.03
2019-04-29T16:57:42.012Z,10.10
2019-04-29T17:00:15.758Z,10.53
2019-04-29T17:02:46.301Z,11.00
2019-04-29T17:05:17.124Z,12.80
2019-04-29T17:07:48.138Z,12.95
2019-04-29T17:10:20.477Z,12.33
2019-04-29T17:12:52.363Z,12.75
2019-04-29T17:15:25.516Z,11.00
2019-04-29T17:17:55.594Z,10.40
2019-04-29T17:20:26.520Z,9.70
2019-04-29T17:22:57.436Z,9.58
2019-04-29T17:25:28.358Z,8.90
2019-04-29T17:28:03.002Z,8.25
2019-04-29T17:30:38.469Z,7.75
2019-04-29T17:33:08.968Z,8.28
2019-04-29T17:35:18.800Z,9.73
2019-04-29T17:35:46.900Z,7.83
2019-04-29T17:38:12.904Z,8.65
2019-04-29T17:40:50.965Z,9.30
2019-04-29T17:43:17.698Z,9.05
2019-04-29T17:45:49.889Z,8.65
2019-04-29T17:48:22.055Z,8.30
2019-04-29T17:50:54.230Z,8.83
2019-04-29T17:53:26.427Z,8.93
2019-04-29T17:55:58.671Z,8.33
2019-04-29T17:58:30.759Z,8.48
2019-04-29T18:01:01.608Z,8.65
2019-04-29T18:03:34.843Z,7.70
2019-04-29T18:06:07.664Z,8.28
2019-04-29T18:08:39.879Z,7.78
2019-04-29T18:11:10.925Z,7.17
2019-04-29T18:13:41.736Z,7.20
2019-04-29T18:16:19.151Z,7.03
2019-04-29T18:18:53.058Z,7.45
2019-04-29T18:21:19.872Z,7.72
2019-04-29T18:23:56.727Z,6.87
2019-04-29T18:26:25.784Z,7.45
2019-04-29T18:29:03.686Z,7.70
2019-04-29T18:31:30.585Z,7.03
2019-04-29T18:34:01.685Z,6.97
2019-04-29T18:36:32.484Z,7.45
2019-04-29T18:39:03.424Z,7.28
2019-04-29T18:41:35.482Z,6.53
2019-04-29T18:44:07.213Z,6.75
2019-04-29T18:46:37.962Z,7.53
2019-04-29T18:49:08.842Z,6.72
2019-04-29T18:51:39.672Z,6.65
2019-04-29T18:54:10.596Z,6.92
2019-04-29T18:56:41.685Z,6.40
2019-04-29T18:59:12.439Z,6.75
2019-04-29T19:01:44.902Z,6.42
2019-04-29T19:04:19.094Z,6.22
2019-04-29T19:06:51.220Z,6.78
2019-04-29T19:09:22.724Z,6.50
2019-04-29T19:11:55.248Z,6.67
2019-04-29T19:14:28.185Z,7.00
2019-04-29T19:17:01.271Z,6.75
2019-04-29T19:19:30.878Z,7.28
2019-04-29T19:22:07.692Z,7.03
2019-04-29T19:24:36.456Z,6.75
2019-04-29T19:27:09.786Z,7.20
2019-04-29T19:29:43.246Z,7.17
2019-04-29T19:32:11.870Z,7.85
2019-04-29T19:34:43.649Z,7.35
2019-04-29T19:37:15.391Z,7.62
2019-04-29T19:39:46.389Z,7.50
2019-04-29T19:42:28.354Z,8.18
2019-04-29T19:44:49.389Z,8.53
2019-04-29T19:47:19.993Z,8.63
2019-04-29T19:49:50.983Z,7.72
2019-04-29T19:52:28.712Z,8.60
2019-04-29T19:54:57.322Z,8.93
2019-04-29T19:57:25.972Z,9.70
2019-04-29T19:59:57.064Z,10.10
2019-04-29T20:02:28.622Z,12.10
2019-04-29T20:05:03.184Z,15.60
2019-04-29T20:07:40.910Z,20.35
2019-04-29T20:10:10.202Z,23.32
2019-04-29T20:12:39.784Z,19.60
2019-04-29T20:15:11.722Z,16.75
2019-04-29T20:17:47.054Z,14.78
2019-04-29T20:20:17.351Z,12.75
2019-04-29T20:22:51.056Z,13.13
2019-04-29T20:25:29.165Z,13.80
2019-04-29T20:28:04.799Z,19.87
2019-04-29T20:30:25.156Z,25.12
2019-04-29T20:32:56.209Z,25.80
2019-04-29T20:35:27.227Z,24.32
2019-04-29T20:38:00.294Z,21.40
2019-04-29T20:40:35.334Z,19.05
2019-04-29T20:43:02.842Z,18.77
2019-04-29T20:45:35.377Z,17.23
2019-04-29T20:48:06.414Z,17.42
2019-04-29T20:50:37.479Z,17.50
2019-04-29T20:53:09.896Z,18.23
2019-04-29T20:55:40.884Z,18.48
2019-04-29T20:58:11.941Z,17.52
2019-04-29T21:00:44.999Z,18.00
2019-04-29T21:03:27.346Z,19.15
2019-04-29T21:05:50.248Z,20.10
2019-04-29T21:08:20.486Z,20.88
2019-04-29T21:10:52.891Z,18.55
2019-04-29T21:13:26.154Z,15.53
2019-04-29T21:15:59.561Z,14.80
2019-04-29T21:18:30.568Z,13.15
2019-04-29T21:21:04.587Z,12.78
2019-04-29T21:23:35.497Z,12.28
2019-04-29T21:26:08.672Z,11.60
2019-04-29T21:28:41.239Z,11.65
2019-04-29T21:31:11.656Z,11.45
2019-04-29T21:33:42.472Z,12.20
2019-04-29T21:36:15.319Z,12.37
2019-04-29T21:38:48.510Z,11.63
2019-04-29T21:41:21.863Z,11.38
2019-04-29T21:43:54.630Z,11.63
2019-04-29T21:46:29.381Z,11.53
2019-04-29T21:48:57.655Z,11.48
2019-04-29T21:51:28.487Z,12.35
2019-04-29T21:53:59.327Z,12.60
2019-04-29T21:56:30.194Z,13.50
2019-04-29T21:59:02.707Z,14.45
2019-04-29T22:01:34.327Z,14.60
2019-04-29T22:04:06.970Z,14.75
2019-04-29T22:06:38.173Z,13.80
2019-04-29T22:09:09.770Z,13.05
2019-04-29T22:11:43.559Z,13.90
2019-04-29T22:14:14.176Z,14.80
2019-04-29T22:16:47.580Z,15.05
2019-04-29T22:19:17.602Z,16.37
2019-04-29T22:21:48.484Z,22.87
2019-04-29T22:24:21.818Z,25.27
2019-04-29T22:26:51.425Z,24.40
